sensor_id;sensor_type;location;lat;lon;timestamp;pressure;altitude;pressure_sealevel;temperature;humidity
56681;BME280;42558;52.388;13.390;2023-08-06T00:01:05;100363.82;;;16.05;100.00
56681;BME280;42558;52.388;13.390;2023-08-06T00:03:33;100364.44;;;16.00;100.00
56681;BME280;42558;52.388;13.390;2023-08-06T00:06:02;100362.86;;;15.99;100.00
56681;BME280;42558;52.388;13.390;2023-08-06T00:08:33;100360.20;;;15.97;100.00
56681;BME280;42558;52.388;13.390;2023-08-06T00:11:02;100354.20;;;15.96;100.00
56681;BME280;42558;52.388;13.390;2023-08-06T00:13:30;100346.63;;;15.94;100.00
56681;BME280;42558;52.388;13.390;2023-08-06T00:16:12;100343.62;;;15.93;100.00
56681;BME280;42558;52.388;13.390;2023-08-06T00:18:41;100341.48;;;15.94;100.00
56681;BME280;42558;52.388;13.390;2023-08-06T00:21:11;100342.75;;;15.91;100.00
56681;BME280;42558;52.388;13.390;2023-08-06T00:23:44;100341.50;;;15.92;100.00
56681;BME280;42558;52.388;13.390;2023-08-06T00:26:11;100342.06;;;15.89;100.00
56681;BME280;42558;52.388;13.390;2023-08-06T00:28:39;100337.29;;;15.89;100.00
56681;BME280;42558;52.388;13.390;2023-08-06T00:31:09;100336.05;;;15.89;100.00
56681;BME280;42558;52.388;13.390;2023-08-06T00:33:38;100337.11;;;15.89;100.00
56681;BME280;42558;52.388;13.390;2023-08-06T00:36:05;100341.27;;;15.84;100.00
56681;BME280;42558;52.388;13.390;2023-08-06T00:38:34;100339.35;;;15.81;100.00
56681;BME280;42558;52.388;13.390;2023-08-06T00:41:02;100339.14;;;15.83;100.00
56681;BME280;42558;52.388;13.390;2023-08-06T00:43:31;100334.72;;;15.83;100.00
56681;BME280;42558;52.388;13.390;2023-08-06T00:46:00;100333.09;;;15.85;100.00
56681;BME280;42558;52.388;13.390;2023-08-06T00:48:28;100332.58;;;15.84;100.00
56681;BME280;42558;52.388;13.390;2023-08-06T00:50:56;100335.23;;;15.85;100.00
56681;BME280;42558;52.388;13.390;2023-08-06T00:53:24;100336.11;;;15.85;100.00
56681;BME280;42558;52.388;13.390;2023-08-06T00:55:53;100335.06;;;15.83;100.00
56681;BME280;42558;52.388;13.390;2023-08-06T00:58:21;100328.46;;;15.75;100.00
56681;BME280;42558;52.388;13.390;2023-08-06T01:00:50;100327.96;;;15.73;100.00
56681;BME280;42558;52.388;13.390;2023-08-06T01:03:18;100327.76;;;15.75;100.00
56681;BME280;42558;52.388;13.390;2023-08-06T01:05:47;100328.67;;;15.73;100.00
56681;BME280;42558;52.388;13.390;2023-08-06T01:08:32;100325.33;;;15.72;100.00
56681;BME280;42558;52.388;13.390;2023-08-06T01:11:33;100320.98;;;15.66;100.00
56681;BME280;42558;52.388;13.390;2023-08-06T01:14:20;100318.00;;;15.61;100.00
56681;BME280;42558;52.388;13.390;2023-08-06T01:16:54;100320.83;;;15.63;100.00
56681;BME280;42558;52.388;13.390;2023-08-06T01:19:24;100314.42;;;15.65;100.00
56681;BME280;42558;52.388;13.390;2023-08-06T01:21:54;100307.92;;;15.61;100.00
56681;BME280;42558;52.388;13.390;2023-08-06T01:24:24;100304.29;;;15.53;100.00
56681;BME280;42558;52.388;13.390;2023-08-06T01:27:04;100302.60;;;15.46;100.00
56681;BME280;42558;52.388;13.390;2023-08-06T01:29:45;100297.41;;;15.49;100.00
56681;BME280;42558;52.388;13.390;2023-08-06T01:32:20;100294.50;;;15.43;100.00
56681;BME280;42558;52.388;13.390;2023-08-06T01:34:51;100285.30;;;15.42;100.00
56681;BME280;42558;52.388;13.390;2023-08-06T01:37:23;100283.35;;;15.42;100.00
56681;BME280;42558;52.388;13.390;2023-08-06T01:39:53;100283.55;;;15.41;100.00
56681;BME280;42558;52.388;13.390;2023-08-06T01:42:23;100284.66;;;15.38;100.00
56681;BME280;42558;52.388;13.390;2023-08-06T01:44:51;100278.48;;;15.34;100.00
56681;BME280;42558;52.388;13.390;2023-08-06T01:47:19;100277.14;;;15.30;100.00
56681;BME280;42558;52.388;13.390;2023-08-06T01:49:48;100279.58;;;15.33;100.00
56681;BME280;42558;52.388;13.390;2023-08-06T01:52:16;100277.68;;;15.29;100.00
56681;BME280;42558;52.388;13.390;2023-08-06T01:54:45;100271.17;;;15.26;100.00
56681;BME280;42558;52.388;13.390;2023-08-06T01:57:12;100268.90;;;15.23;100.00
56681;BME280;42558;52.388;13.390;2023-08-06T01:59:41;100266.09;;;15.22;100.00
56681;BME280;42558;52.388;13.390;2023-08-06T02:02:09;100261.51;;;15.20;100.00
56681;BME280;42558;52.388;13.390;2023-08-06T02:04:38;100259.94;;;15.19;100.00
56681;BME280;42558;52.388;13.390;2023-08-06T02:07:06;100264.70;;;15.20;100.00
56681;BME280;42558;52.388;13.390;2023-08-06T02:09:34;100260.61;;;15.21;100.00
56681;BME280;42558;52.388;13.390;2023-08-06T02:12:04;100261.98;;;15.25;100.00
56681;BME280;42558;52.388;13.390;2023-08-06T02:14:31;100256.83;;;15.26;100.00
56681;BME280;42558;52.388;13.390;2023-08-06T02:17:00;100256.57;;;15.19;100.00
56681;BME280;42558;52.388;13.390;2023-08-06T02:19:28;100257.88;;;15.15;100.00
56681;BME280;42558;52.388;13.390;2023-08-06T02:21:57;100254.75;;;15.09;100.00
56681;BME280;42558;52.388;13.390;2023-08-06T02:24:25;100250.83;;;15.12;100.00
56681;BME280;42558;52.388;13.390;2023-08-06T02:26:53;100249.99;;;15.07;100.00
56681;BME280;42558;52.388;13.390;2023-08-06T02:29:25;100253.09;;;14.99;100.00
56681;BME280;42558;52.388;13.390;2023-08-06T02:31:55;100246.08;;;14.94;100.00
56681;BME280;42558;52.388;13.390;2023-08-06T02:34:25;100244.89;;;14.90;100.00
56681;BME280;42558;52.388;13.390;2023-08-06T02:36:55;100241.10;;;14.96;100.00
56681;BME280;42558;52.388;13.390;2023-08-06T02:39:25;100228.90;;;14.95;100.00
56681;BME280;42558;52.388;13.390;2023-08-06T02:41:55;100223.61;;;14.94;100.00
56681;BME280;42558;52.388;13.390;2023-08-06T02:44:28;100222.20;;;14.93;100.00
56681;BME280;42558;52.388;13.390;2023-08-06T02:46:58;100224.08;;;14.86;100.00
56681;BME280;42558;52.388;13.390;2023-08-06T02:49:28;100220.98;;;14.77;100.00
56681;BME280;42558;52.388;13.390;2023-08-06T02:51:58;100219.63;;;14.73;100.00
56681;BME280;42558;52.388;13.390;2023-08-06T02:54:28;100219.33;;;14.69;100.00
56681;BME280;42558;52.388;13.390;2023-08-06T02:56:58;100217.17;;;14.70;100.00
56681;BME280;42558;52.388;13.390;2023-08-06T02:59:28;100217.19;;;14.69;100.00
56681;BME280;42558;52.388;13.390;2023-08-06T03:01:58;100218.81;;;14.68;100.00
56681;BME280;42558;52.388;13.390;2023-08-06T03:04:26;100212.79;;;14.67;100.00
56681;BME280;42558;52.388;13.390;2023-08-06T03:06:55;100216.39;;;14.62;100.00
56681;BME280;42558;52.388;13.390;2023-08-06T03:09:23;100216.46;;;14.56;100.00
56681;BME280;42558;52.388;13.390;2023-08-06T03:11:51;100214.48;;;14.60;100.00
56681;BME280;42558;52.388;13.390;2023-08-06T03:14:20;100213.62;;;14.56;100.00
56681;BME280;42558;52.388;13.390;2023-08-06T03:16:48;100210.11;;;14.55;100.00
56681;BME280;42558;52.388;13.390;2023-08-06T03:19:17;100205.17;;;14.53;100.00
56681;BME280;42558;52.388;13.390;2023-08-06T03:21:45;100199.65;;;14.57;100.00
56681;BME280;42558;52.388;13.390;2023-08-06T03:24:14;100198.09;;;14.54;100.00
56681;BME280;42558;52.388;13.390;2023-08-06T03:26:42;100196.36;;;14.50;100.00
56681;BME280;42558;52.388;13.390;2023-08-06T03:29:10;100189.62;;;14.53;100.00
56681;BME280;42558;52.388;13.390;2023-08-06T03:31:39;100184.83;;;14.53;100.00
56681;BME280;42558;52.388;13.390;2023-08-06T03:34:07;100180.08;;;14.51;100.00
56681;BME280;42558;52.388;13.390;2023-08-06T03:36:35;100176.89;;;14.53;100.00
56681;BME280;42558;52.388;13.390;2023-08-06T03:39:04;100173.54;;;14.50;100.00
56681;BME280;42558;52.388;13.390;2023-08-06T03:41:32;100176.72;;;14.52;100.00
56681;BME280;42558;52.388;13.390;2023-08-06T03:44:01;100171.98;;;14.48;100.00
56681;BME280;42558;52.388;13.390;2023-08-06T03:46:32;100167.92;;;14.44;100.00
56681;BME280;42558;52.388;13.390;2023-08-06T03:49:00;100168.09;;;14.46;100.00
56681;BME280;42558;52.388;13.390;2023-08-06T03:51:29;100163.14;;;14.48;100.00
56681;BME280;42558;52.388;13.390;2023-08-06T03:53:57;100156.91;;;14.51;100.00
56681;BME280;42558;52.388;13.390;2023-08-06T03:56:26;100158.55;;;14.47;100.00
56681;BME280;42558;52.388;13.390;2023-08-06T03:58:54;100153.17;;;14.53;100.00
56681;BME280;42558;52.388;13.390;2023-08-06T04:01:23;100151.52;;;14.57;100.00
56681;BME280;42558;52.388;13.390;2023-08-06T04:03:51;100150.45;;;14.58;100.00
56681;BME280;42558;52.388;13.390;2023-08-06T04:06:19;100150.95;;;14.61;100.00
56681;BME280;42558;52.388;13.390;2023-08-06T04:08:48;100148.25;;;14.63;100.00
56681;BME280;42558;52.388;13.390;2023-08-06T04:11:16;100145.23;;;14.63;100.00
56681;BME280;42558;52.388;13.390;2023-08-06T04:13:45;100142.83;;;14.60;100.00
56681;BME280;42558;52.388;13.390;2023-08-06T04:16:13;100139.06;;;14.63;100.00
56681;BME280;42558;52.388;13.390;2023-08-06T04:18:41;100137.10;;;14.64;100.00
56681;BME280;42558;52.388;13.390;2023-08-06T04:21:10;100131.80;;;14.63;100.00
56681;BME280;42558;52.388;13.390;2023-08-06T04:23:38;100129.30;;;14.65;100.00
56681;BME280;42558;52.388;13.390;2023-08-06T04:26:07;100126.41;;;14.57;100.00
56681;BME280;42558;52.388;13.390;2023-08-06T04:28:35;100121.42;;;14.59;100.00
56681;BME280;42558;52.388;13.390;2023-08-06T04:31:04;100118.14;;;14.66;100.00
56681;BME280;42558;52.388;13.390;2023-08-06T04:33:32;100115.80;;;14.68;100.00
56681;BME280;42558;52.388;13.390;2023-08-06T04:36:00;100111.73;;;14.69;100.00
56681;BME280;42558;52.388;13.390;2023-08-06T04:38:29;100110.11;;;14.72;100.00
56681;BME280;42558;52.388;13.390;2023-08-06T04:40:58;100105.14;;;14.73;100.00
56681;BME280;42558;52.388;13.390;2023-08-06T04:43:26;100103.31;;;14.76;100.00
56681;BME280;42558;52.388;13.390;2023-08-06T04:45:55;100102.94;;;14.79;100.00
56681;BME280;42558;52.388;13.390;2023-08-06T04:48:25;100099.23;;;14.77;100.00
56681;BME280;42558;52.388;13.390;2023-08-06T04:50:55;100091.58;;;14.81;100.00
56681;BME280;42558;52.388;13.390;2023-08-06T04:53:25;100090.66;;;14.82;100.00
56681;BME280;42558;52.388;13.390;2023-08-06T04:55:55;100090.54;;;14.79;100.00
56681;BME280;42558;52.388;13.390;2023-08-06T04:58:25;100090.13;;;14.70;100.00
56681;BME280;42558;52.388;13.390;2023-08-06T05:00:55;100089.16;;;14.77;100.00
56681;BME280;42558;52.388;13.390;2023-08-06T05:03:25;100087.36;;;14.79;100.00
56681;BME280;42558;52.388;13.390;2023-08-06T05:05:55;100086.89;;;14.75;100.00
56681;BME280;42558;52.388;13.390;2023-08-06T05:08:25;100087.14;;;14.81;100.00
56681;BME280;42558;52.388;13.390;2023-08-06T05:10:54;100089.08;;;14.82;100.00
56681;BME280;42558;52.388;13.390;2023-08-06T05:13:24;100084.95;;;14.73;100.00
56681;BME280;42558;52.388;13.390;2023-08-06T05:15:55;100081.31;;;14.68;100.00
56681;BME280;42558;52.388;13.390;2023-08-06T05:18:25;100077.77;;;14.69;100.00
56681;BME280;42558;52.388;13.390;2023-08-06T05:20:55;100072.14;;;14.78;100.00
56681;BME280;42558;52.388;13.390;2023-08-06T05:23:24;100071.55;;;14.82;100.00
56681;BME280;42558;52.388;13.390;2023-08-06T05:25:54;100069.20;;;14.74;100.00
56681;BME280;42558;52.388;13.390;2023-08-06T05:28:24;100063.58;;;14.71;100.00
56681;BME280;42558;52.388;13.390;2023-08-06T05:30:54;100061.39;;;14.63;100.00
56681;BME280;42558;52.388;13.390;2023-08-06T05:33:24;100056.68;;;14.71;100.00
56681;BME280;42558;52.388;13.390;2023-08-06T05:35:54;100055.31;;;14.80;100.00
56681;BME280;42558;52.388;13.390;2023-08-06T05:38:24;100053.27;;;14.86;100.00
56681;BME280;42558;52.388;13.390;2023-08-06T05:40:54;100053.09;;;14.86;100.00
56681;BME280;42558;52.388;13.390;2023-08-06T05:43:24;100053.90;;;14.91;100.00
56681;BME280;42558;52.388;13.390;2023-08-06T05:45:56;100052.31;;;14.91;100.00
56681;BME280;42558;52.388;13.390;2023-08-06T05:48:26;100052.31;;;14.90;100.00
56681;BME280;42558;52.388;13.390;2023-08-06T05:50:57;100047.63;;;14.84;100.00
56681;BME280;42558;52.388;13.390;2023-08-06T05:53:26;100054.16;;;14.85;100.00
56681;BME280;42558;52.388;13.390;2023-08-06T05:55:54;100048.35;;;14.83;100.00
56681;BME280;42558;52.388;13.390;2023-08-06T05:58:22;100048.14;;;14.75;100.00
56681;BME280;42558;52.388;13.390;2023-08-06T06:00:55;100044.58;;;14.76;100.00
56681;BME280;42558;52.388;13.390;2023-08-06T06:03:26;100043.66;;;14.78;100.00
56681;BME280;42558;52.388;13.390;2023-08-06T06:05:56;100044.77;;;14.87;100.00
56681;BME280;42558;52.388;13.390;2023-08-06T06:08:26;100043.81;;;15.02;100.00
56681;BME280;42558;52.388;13.390;2023-08-06T06:10:56;100042.44;;;15.00;100.00
56681;BME280;42558;52.388;13.390;2023-08-06T06:13:26;100040.88;;;14.97;100.00
56681;BME280;42558;52.388;13.390;2023-08-06T06:15:56;100037.74;;;14.95;100.00
56681;BME280;42558;52.388;13.390;2023-08-06T06:18:26;100033.34;;;15.04;100.00
56681;BME280;42558;52.388;13.390;2023-08-06T06:20:56;100030.27;;;14.97;100.00
56681;BME280;42558;52.388;13.390;2023-08-06T06:23:26;100026.47;;;14.91;100.00
56681;BME280;42558;52.388;13.390;2023-08-06T06:25:56;100021.05;;;14.97;100.00
56681;BME280;42558;52.388;13.390;2023-08-06T06:28:25;100020.70;;;14.97;100.00
56681;BME280;42558;52.388;13.390;2023-08-06T06:31:01;100021.08;;;15.07;100.00
56681;BME280;42558;52.388;13.390;2023-08-06T06:33:31;100020.43;;;15.13;100.00
56681;BME280;42558;52.388;13.390;2023-08-06T06:36:01;100016.57;;;15.22;100.00
56681;BME280;42558;52.388;13.390;2023-08-06T06:38:34;100017.04;;;15.26;100.00
56681;BME280;42558;52.388;13.390;2023-08-06T06:41:04;100018.98;;;15.26;100.00
56681;BME280;42558;52.388;13.390;2023-08-06T06:43:34;100022.55;;;15.34;100.00
56681;BME280;42558;52.388;13.390;2023-08-06T06:46:04;100023.04;;;15.37;100.00
56681;BME280;42558;52.388;13.390;2023-08-06T06:48:34;100022.42;;;15.42;100.00
56681;BME280;42558;52.388;13.390;2023-08-06T06:51:03;100017.02;;;15.46;100.00
56681;BME280;42558;52.388;13.390;2023-08-06T06:53:33;100017.23;;;15.35;100.00
56681;BME280;42558;52.388;13.390;2023-08-06T06:56:04;100022.65;;;15.29;100.00
56681;BME280;42558;52.388;13.390;2023-08-06T06:58:34;100024.27;;;15.37;100.00
56681;BME280;42558;52.388;13.390;2023-08-06T07:01:04;100025.55;;;15.45;100.00
56681;BME280;42558;52.388;13.390;2023-08-06T07:03:34;100029.40;;;15.47;100.00
56681;BME280;42558;52.388;13.390;2023-08-06T07:06:04;100032.71;;;15.61;100.00
56681;BME280;42558;52.388;13.390;2023-08-06T07:08:35;100033.96;;;15.60;100.00
56681;BME280;42558;52.388;13.390;2023-08-06T07:11:06;100031.54;;;15.67;100.00
56681;BME280;42558;52.388;13.390;2023-08-06T07:13:36;100032.32;;;15.73;100.00
56681;BME280;42558;52.388;13.390;2023-08-06T07:16:06;100031.75;;;15.75;100.00
56681;BME280;42558;52.388;13.390;2023-08-06T07:18:38;100031.23;;;15.83;100.00
56681;BME280;42558;52.388;13.390;2023-08-06T07:21:06;100035.05;;;15.79;100.00
56681;BME280;42558;52.388;13.390;2023-08-06T07:23:34;100033.03;;;15.73;100.00
56681;BME280;42558;52.388;13.390;2023-08-06T07:26:03;100033.30;;;15.77;100.00
56681;BME280;42558;52.388;13.390;2023-08-06T07:28:31;100032.90;;;15.60;100.00
56681;BME280;42558;52.388;13.390;2023-08-06T07:30:59;100033.64;;;15.68;100.00
56681;BME280;42558;52.388;13.390;2023-08-06T07:33:28;100030.27;;;15.78;100.00
56681;BME280;42558;52.388;13.390;2023-08-06T07:35:56;100033.46;;;15.78;100.00
56681;BME280;42558;52.388;13.390;2023-08-06T07:38:25;100031.30;;;15.88;100.00
56681;BME280;42558;52.388;13.390;2023-08-06T07:40:53;100027.25;;;15.87;100.00
56681;BME280;42558;52.388;13.390;2023-08-06T07:43:23;100024.91;;;15.89;100.00
56681;BME280;42558;52.388;13.390;2023-08-06T07:45:53;100022.14;;;15.86;100.00
56681;BME280;42558;52.388;13.390;2023-08-06T07:48:21;100020.99;;;15.90;100.00
56681;BME280;42558;52.388;13.390;2023-08-06T07:50:55;100024.67;;;15.93;100.00
56681;BME280;42558;52.388;13.390;2023-08-06T07:53:25;100023.13;;;15.90;100.00
56681;BME280;42558;52.388;13.390;2023-08-06T07:55:59;100021.27;;;15.94;100.00
56681;BME280;42558;52.388;13.390;2023-08-06T07:58:32;100019.02;;;15.91;100.00
56681;BME280;42558;52.388;13.390;2023-08-06T08:01:01;100020.48;;;15.98;100.00
56681;BME280;42558;52.388;13.390;2023-08-06T08:03:34;100023.30;;;15.99;100.00
56681;BME280;42558;52.388;13.390;2023-08-06T08:06:04;100019.42;;;15.89;100.00
56681;BME280;42558;52.388;13.390;2023-08-06T08:08:34;100019.02;;;16.00;100.00
56681;BME280;42558;52.388;13.390;2023-08-06T08:11:08;100015.92;;;16.03;100.00
56681;BME280;42558;52.388;13.390;2023-08-06T08:13:36;100018.76;;;16.04;100.00
56681;BME280;42558;52.388;13.390;2023-08-06T08:16:05;100017.75;;;16.10;100.00
56681;BME280;42558;52.388;13.390;2023-08-06T08:18:33;100016.14;;;16.19;100.00
56681;BME280;42558;52.388;13.390;2023-08-06T08:21:02;100014.14;;;16.13;100.00
56681;BME280;42558;52.388;13.390;2023-08-06T08:23:30;100009.09;;;16.08;100.00
56681;BME280;42558;52.388;13.390;2023-08-06T08:25:58;100008.13;;;16.28;100.00
56681;BME280;42558;52.388;13.390;2023-08-06T08:28:27;100005.95;;;16.39;100.00
56681;BME280;42558;52.388;13.390;2023-08-06T08:30:55;100004.19;;;16.39;100.00
56681;BME280;42558;52.388;13.390;2023-08-06T08:33:23;99999.02;;;16.40;100.00
56681;BME280;42558;52.388;13.390;2023-08-06T08:35:52;99999.80;;;16.36;100.00
56681;BME280;42558;52.388;13.390;2023-08-06T08:38:20;99996.17;;;16.40;100.00
56681;BME280;42558;52.388;13.390;2023-08-06T08:40:53;99993.34;;;16.39;100.00
56681;BME280;42558;52.388;13.390;2023-08-06T08:43:24;99987.27;;;16.48;100.00
56681;BME280;42558;52.388;13.390;2023-08-06T08:45:54;99984.59;;;16.49;100.00
56681;BME280;42558;52.388;13.390;2023-08-06T08:48:29;99983.00;;;16.49;100.00
56681;BME280;42558;52.388;13.390;2023-08-06T08:50:59;99977.25;;;16.52;100.00
56681;BME280;42558;52.388;13.390;2023-08-06T08:53:31;99970.58;;;16.57;100.00
56681;BME280;42558;52.388;13.390;2023-08-06T08:56:01;99966.81;;;16.66;100.00
56681;BME280;42558;52.388;13.390;2023-08-06T08:58:32;99967.83;;;16.69;100.00
56681;BME280;42558;52.388;13.390;2023-08-06T09:01:04;99961.80;;;16.76;100.00
56681;BME280;42558;52.388;13.390;2023-08-06T09:03:36;99962.09;;;16.63;100.00
56681;BME280;42558;52.388;13.390;2023-08-06T09:06:08;99958.11;;;16.67;100.00
56681;BME280;42558;52.388;13.390;2023-08-06T09:08:48;99955.11;;;16.66;100.00
56681;BME280;42558;52.388;13.390;2023-08-06T09:11:20;99948.94;;;16.80;100.00
56681;BME280;42558;52.388;13.390;2023-08-06T09:13:50;99949.58;;;16.75;100.00
56681;BME280;42558;52.388;13.390;2023-08-06T09:16:20;99941.80;;;16.74;100.00
56681;BME280;42558;52.388;13.390;2023-08-06T09:18:50;99942.20;;;16.80;100.00
56681;BME280;42558;52.388;13.390;2023-08-06T09:21:20;99942.61;;;16.84;100.00
56681;BME280;42558;52.388;13.390;2023-08-06T09:23:50;99940.19;;;16.96;100.00
56681;BME280;42558;52.388;13.390;2023-08-06T09:26:20;99941.08;;;16.88;100.00
56681;BME280;42558;52.388;13.390;2023-08-06T09:28:52;99937.89;;;16.96;100.00
56681;BME280;42558;52.388;13.390;2023-08-06T09:31:22;99929.65;;;17.05;100.00
56681;BME280;42558;52.388;13.390;2023-08-06T09:33:52;99929.34;;;16.96;100.00
56681;BME280;42558;52.388;13.390;2023-08-06T09:36:22;99923.98;;;16.90;100.00
56681;BME280;42558;52.388;13.390;2023-08-06T09:38:52;99920.33;;;16.95;100.00
56681;BME280;42558;52.388;13.390;2023-08-06T09:41:28;99917.75;;;16.98;100.00
56681;BME280;42558;52.388;13.390;2023-08-06T09:43:58;99916.83;;;16.92;100.00
56681;BME280;42558;52.388;13.390;2023-08-06T09:46:32;99911.77;;;17.02;100.00
56681;BME280;42558;52.388;13.390;2023-08-06T09:49:02;99912.09;;;16.97;100.00
56681;BME280;42558;52.388;13.390;2023-08-06T09:51:34;99909.59;;;16.91;100.00
56681;BME280;42558;52.388;13.390;2023-08-06T09:54:05;99903.42;;;17.09;100.00
56681;BME280;42558;52.388;13.390;2023-08-06T09:56:54;99899.71;;;17.09;100.00
56681;BME280;42558;52.388;13.390;2023-08-06T09:59:24;99899.02;;;17.21;100.00
56681;BME280;42558;52.388;13.390;2023-08-06T10:01:54;99900.52;;;17.24;100.00
56681;BME280;42558;52.388;13.390;2023-08-06T10:04:24;99896.82;;;17.24;100.00
56681;BME280;42558;52.388;13.390;2023-08-06T10:07:04;99894.08;;;17.07;100.00
56681;BME280;42558;52.388;13.390;2023-08-06T10:09:34;99896.13;;;16.96;100.00
56681;BME280;42558;52.388;13.390;2023-08-06T10:12:04;99896.90;;;16.94;100.00
56681;BME280;42558;52.388;13.390;2023-08-06T10:14:37;99892.20;;;17.03;100.00
56681;BME280;42558;52.388;13.390;2023-08-06T10:17:09;99888.84;;;17.16;100.00
56681;BME280;42558;52.388;13.390;2023-08-06T10:19:39;99886.45;;;17.20;100.00
56681;BME280;42558;52.388;13.390;2023-08-06T10:22:17;99878.99;;;17.19;100.00
56681;BME280;42558;52.388;13.390;2023-08-06T10:24:56;99882.60;;;17.23;100.00
56681;BME280;42558;52.388;13.390;2023-08-06T10:30:31;99875.20;;;17.27;100.00
56681;BME280;42558;52.388;13.390;2023-08-06T10:33:03;99875.98;;;17.19;100.00
56681;BME280;42558;52.388;13.390;2023-08-06T10:35:46;99877.69;;;17.14;100.00
56681;BME280;42558;52.388;13.390;2023-08-06T10:38:22;99877.98;;;17.17;100.00
56681;BME280;42558;52.388;13.390;2023-08-06T10:41:03;99875.20;;;17.28;100.00
56681;BME280;42558;52.388;13.390;2023-08-06T10:43:36;99867.68;;;17.29;100.00
56681;BME280;42558;52.388;13.390;2023-08-06T10:46:23;99870.63;;;17.32;100.00
56681;BME280;42558;52.388;13.390;2023-08-06T10:48:52;99872.95;;;17.19;100.00
56681;BME280;42558;52.388;13.390;2023-08-06T10:51:20;99865.96;;;17.15;100.00
56681;BME280;42558;52.388;13.390;2023-08-06T10:53:50;99866.33;;;17.21;100.00
56681;BME280;42558;52.388;13.390;2023-08-06T10:56:23;99861.16;;;17.22;100.00
56681;BME280;42558;52.388;13.390;2023-08-06T10:58:55;99861.48;;;17.16;100.00
56681;BME280;42558;52.388;13.390;2023-08-06T11:01:29;99861.23;;;17.13;100.00
56681;BME280;42558;52.388;13.390;2023-08-06T11:04:02;99855.95;;;17.18;100.00
56681;BME280;42558;52.388;13.390;2023-08-06T11:06:34;99851.20;;;17.09;100.00
56681;BME280;42558;52.388;13.390;2023-08-06T11:09:04;99846.02;;;17.10;100.00
56681;BME280;42558;52.388;13.390;2023-08-06T11:11:32;99842.89;;;17.08;100.00
56681;BME280;42558;52.388;13.390;2023-08-06T11:14:00;99844.84;;;17.08;100.00
56681;BME280;42558;52.388;13.390;2023-08-06T11:16:29;99842.30;;;17.10;100.00
56681;BME280;42558;52.388;13.390;2023-08-06T11:18:59;99834.14;;;17.03;100.00
56681;BME280;42558;52.388;13.390;2023-08-06T11:21:28;99833.71;;;17.06;100.00
56681;BME280;42558;52.388;13.390;2023-08-06T11:23:56;99830.42;;;17.09;100.00
56681;BME280;42558;52.388;13.390;2023-08-06T11:26:24;99827.00;;;17.04;100.00
56681;BME280;42558;52.388;13.390;2023-08-06T11:28:53;99828.01;;;16.94;100.00
56681;BME280;42558;52.388;13.390;2023-08-06T11:31:23;99821.62;;;17.00;100.00
56681;BME280;42558;52.388;13.390;2023-08-06T11:33:54;99817.85;;;17.08;100.00
56681;BME280;42558;52.388;13.390;2023-08-06T11:36:40;99814.95;;;17.03;100.00
56681;BME280;42558;52.388;13.390;2023-08-06T11:39:10;99815.55;;;16.94;100.00
56681;BME280;42558;52.388;13.390;2023-08-06T11:41:41;99812.02;;;16.94;100.00
56681;BME280;42558;52.388;13.390;2023-08-06T11:44:11;99811.17;;;16.93;100.00
56681;BME280;42558;52.388;13.390;2023-08-06T11:46:56;99803.67;;;17.00;100.00
56681;BME280;42558;52.388;13.390;2023-08-06T11:55:08;99797.87;;;17.04;100.00
56681;BME280;42558;52.388;13.390;2023-08-06T11:57:44;99798.34;;;16.95;100.00
56681;BME280;42558;52.388;13.390;2023-08-06T12:00:15;99791.38;;;17.02;100.00
56681;BME280;42558;52.388;13.390;2023-08-06T12:02:46;99794.35;;;17.03;100.00
56681;BME280;42558;52.388;13.390;2023-08-06T12:05:19;99795.20;;;17.04;100.00
56681;BME280;42558;52.388;13.390;2023-08-06T12:07:59;99793.52;;;17.08;100.00
56681;BME280;42558;52.388;13.390;2023-08-06T12:10:31;99790.42;;;17.10;100.00
56681;BME280;42558;52.388;13.390;2023-08-06T12:13:02;99788.36;;;17.08;100.00
56681;BME280;42558;52.388;13.390;2023-08-06T12:15:32;99789.36;;;16.92;100.00
56681;BME280;42558;52.388;13.390;2023-08-06T12:18:02;99788.23;;;16.81;100.00
56681;BME280;42558;52.388;13.390;2023-08-06T12:20:33;99789.71;;;16.79;100.00
56681;BME280;42558;52.388;13.390;2023-08-06T12:23:03;99786.02;;;16.84;100.00
56681;BME280;42558;52.388;13.390;2023-08-06T12:25:32;99790.48;;;16.83;100.00
56681;BME280;42558;52.388;13.390;2023-08-06T12:28:03;99796.70;;;16.76;100.00
56681;BME280;42558;52.388;13.390;2023-08-06T12:30:33;99796.58;;;16.67;100.00
56681;BME280;42558;52.388;13.390;2023-08-06T12:33:03;99801.05;;;16.59;100.00
56681;BME280;42558;52.388;13.390;2023-08-06T12:35:33;99802.30;;;16.51;100.00
56681;BME280;42558;52.388;13.390;2023-08-06T12:38:01;99802.25;;;16.33;100.00
56681;BME280;42558;52.388;13.390;2023-08-06T12:40:29;99806.20;;;16.17;100.00
56681;BME280;42558;52.388;13.390;2023-08-06T12:43:06;99807.85;;;16.15;100.00
56681;BME280;42558;52.388;13.390;2023-08-06T12:45:36;99803.88;;;16.03;100.00
56681;BME280;42558;52.388;13.390;2023-08-06T12:48:06;99800.82;;;15.97;100.00
56681;BME280;42558;52.388;13.390;2023-08-06T12:50:36;99797.66;;;16.03;100.00
56681;BME280;42558;52.388;13.390;2023-08-06T12:53:06;99797.41;;;15.99;100.00
56681;BME280;42558;52.388;13.390;2023-08-06T12:55:36;99798.14;;;15.98;100.00
56681;BME280;42558;52.388;13.390;2023-08-06T12:58:06;99796.94;;;15.96;100.00